Pagrindinis puslapis
METAR-TAF:

METAR-TAF

Oro uostai :

Paksė, Laosas

platuma: 15-08-02N, ilguma: 105-46-55E, Aukštis: 107 m

Dabartinis oras

Ataskaita buvo paskelbta 7 valandos ir 38 minutes, ne 13:00 UTC
Vėjas 2 kt iš Pietų
Temperatūra 26°C
Drėgmė 89%
Slėgis 1009 hPa
Matomumas 10 km arba daugiau
Išsisklaidę debesys ne aukštis 2000 ft
Su prošvaistėmis ne aukštis 5000 ft

METAR: VLPS 171300Z 18002KT 9999 SCT020 BKN050 26/24 Q1009 NOSIG

Laikas: 03:38 (20:38 UTC)

Prognozė

Ataskaita buvo paskelbta 3 valandos ir 38 minutes, ne 17:00 UTC
Prognozė galioja nuo 17 metu 18 UTC su 18 metu 18 UTC
Vėjas 6 kt iš Pietų
Matomumas 10 km arba daugiau
Išsisklaidę debesys ne aukštis 2000 ft
Su prošvaistėmis ne aukštis 5000 ft

TAF: VLPS 171700Z 1718/1818 18006KT 9999 SCT020 BKN050

Orai ataskaitas ir orų prognozės (METAR, TAF).

turimą stotys yra geltonos ir raudonos taškus žemėlapyje.

Perkelti pele per norėdami pamatyti stoties vardą.

Tada spustelėkite, norėdami matyti oro stebėjimo ir prognozės.

Norėdami pakeisti žemėlapį: spustelėkite ant žalios mygtukų su juodo kryžiaus žemyn,; žalią mygtuką su brūkšneliu, jei norite nutolinti; arba žalių rodyklių gretimoms žemėlapius.


METAR-TAF: